Time;durP1;ratioP1;P1;durP2;ratioP2;P2;SDS_P1;SDS_P2;PMS_P1;PMS_P2;Temp;Humidity;BMP_temperature;BMP_pressure;BME280_temperature;BME280_humidity;BME280_pressure;Samples;Min_cycle;Max_cycle;Signal;HPM_P1;HPM_P2
2022/03/16 00:01:58;;;;;;;22.50;14.10;;;;;;;6.49;100.00;96474.78;5072865;28;24431;-76
2022/03/16 00:04:24;;;;;;;16.65;13.25;;;;;;;6.61;100.00;96470.94;5072655;28;24426;-77
2022/03/16 00:06:52;;;;;;;17.63;13.25;;;;;;;6.56;100.00;96460.78;5072973;28;24426;-76
2022/03/16 00:09:18;;;;;;;13.13;11.90;;;;;;;6.41;100.00;96458.75;5072474;28;24516;-77
2022/03/16 00:11:45;;;;;;;19.93;12.53;;;;;;;6.46;100.00;96465.44;5072856;28;24465;-76
2022/03/16 00:14:12;;;;;;;19.15;12.20;;;;;;;6.44;100.00;96462.06;5072656;28;24418;-76
2022/03/16 00:16:38;;;;;;;16.83;15.10;;;;;;;6.54;100.00;96473.72;5072435;28;24883;-76
2022/03/16 00:19:04;;;;;;;16.40;14.53;;;;;;;6.50;100.00;96461.84;5072068;28;24991;-75
2022/03/16 00:21:31;;;;;;;16.00;14.30;;;;;;;6.58;100.00;96474.44;5072622;28;24430;-76
2022/03/16 00:24:00;;;;;;;14.57;13.10;;;;;;;6.32;100.00;96474.53;5072681;28;24442;-76
2022/03/16 00:26:27;;;;;;;19.52;14.77;;;;;;;6.35;100.00;96477.00;5072291;28;25017;-76
2022/03/16 00:28:53;;;;;;;20.80;15.45;;;;;;;6.57;100.00;96477.94;5071942;28;24454;-76
2022/03/16 00:31:20;;;;;;;19.08;17.02;;;;;;;6.60;100.00;96482.09;5072331;28;24419;-76
2022/03/16 00:33:47;;;;;;;19.70;17.77;;;;;;;6.43;100.00;96480.97;5072553;28;24525;-76
2022/03/16 00:36:13;;;;;;;22.70;20.33;;;;;;;6.25;100.00;96482.44;5072349;28;24823;-76
2022/03/16 00:38:40;;;;;;;24.25;21.75;;;;;;;6.22;100.00;96484.28;5072065;28;24429;-76
2022/03/16 00:41:08;;;;;;;23.58;21.15;;;;;;;6.30;100.00;96484.84;5071331;28;24477;-76
2022/03/16 00:43:35;;;;;;;24.33;22.02;;;;;;;6.13;100.00;96480.31;5072099;28;24457;-75
2022/03/16 00:46:01;;;;;;;23.95;21.27;;;;;;;6.19;100.00;96479.25;5072213;28;24423;-76
2022/03/16 00:48:28;;;;;;;22.67;20.38;;;;;;;6.14;100.00;96479.41;5071830;28;24505;-76
2022/03/16 00:50:55;;;;;;;22.63;20.25;;;;;;;6.10;100.00;96477.84;5072061;28;24407;-76
2022/03/16 00:53:21;;;;;;;23.25;20.75;;;;;;;6.14;100.00;96481.97;5071885;28;24986;-76
2022/03/16 00:55:47;;;;;;;22.55;20.15;;;;;;;6.04;100.00;96473.75;5071855;28;24958;-76
2022/03/16 00:58:15;;;;;;;23.27;20.60;;;;;;;6.01;100.00;96480.72;5071687;28;24425;-77
2022/03/16 01:00:42;;;;;;;23.05;19.73;;;;;;;6.13;100.00;96472.59;5071484;28;24430;-76
2022/03/16 01:03:08;;;;;;;27.42;20.17;;;;;;;6.11;100.00;96465.81;5071700;28;24426;-76
2022/03/16 01:05:35;;;;;;;23.23;20.63;;;;;;;6.10;100.00;96472.69;5071783;28;24866;-76
2022/03/16 01:08:01;;;;;;;26.60;19.63;;;;;;;6.13;100.00;96467.44;5071461;28;25221;-76
2022/03/16 01:10:28;;;;;;;23.47;21.00;;;;;;;6.04;100.00;96468.59;5071396;28;24836;-75
2022/03/16 01:12:55;;;;;;;24.43;20.63;;;;;;;6.14;100.00;96465.72;5070705;28;25052;-76
2022/03/16 01:15:24;;;;;;;28.30;21.48;;;;;;;6.11;100.00;96464.06;5071054;28;24429;-76
2022/03/16 01:17:50;;;;;;;28.47;22.23;;;;;;;6.13;100.00;96461.47;5070916;28;25043;-76
2022/03/16 01:20:17;;;;;;;27.77;21.13;;;;;;;6.07;100.00;96465.91;5071249;28;24525;-76
2022/03/16 01:22:43;;;;;;;27.77;20.23;;;;;;;6.06;100.00;96474.53;5071182;28;24422;-76
2022/03/16 01:25:10;;;;;;;28.00;19.83;;;;;;;6.09;100.00;96472.75;5071199;28;24421;-75
2022/03/16 01:27:36;;;;;;;27.08;21.25;;;;;;;6.12;100.00;96468.34;5070974;28;24426;-76
2022/03/16 01:30:05;;;;;;;28.27;20.35;;;;;;;6.19;100.00;96476.66;5071036;28;24446;-76
2022/03/16 01:32:32;;;;;;;27.80;19.05;;;;;;;6.20;100.00;96474.06;5071221;28;24418;-76
2022/03/16 01:34:59;;;;;;;22.65;18.70;;;;;;;6.12;100.00;96475.19;5071054;28;24429;-76
2022/03/16 01:37:25;;;;;;;30.33;19.20;;;;;;;6.24;100.00;96469.66;5071097;28;24423;-76
2022/03/16 01:39:52;;;;;;;27.90;18.98;;;;;;;6.40;100.00;96465.63;5070829;28;24780;-76
2022/03/16 01:42:20;;;;;;;33.22;19.40;;;;;;;6.36;100.00;96469.22;5070786;28;24429;-75
2022/03/16 01:44:48;;;;;;;26.33;18.40;;;;;;;6.18;100.00;96469.84;5071027;28;24538;-76
2022/03/16 01:47:16;;;;;;;28.27;19.80;;;;;;;6.13;100.00;96466.59;5070686;28;24971;-76
2022/03/16 01:49:44;;;;;;;31.40;20.87;;;;;;;6.27;100.00;96472.13;5070687;28;24465;-76
2022/03/16 01:52:14;;;;;;;28.45;20.25;;;;;;;6.33;100.00;96464.16;5070500;28;24422;-76
2022/03/16 01:54:41;;;;;;;27.77;21.08;;;;;;;6.37;100.00;96468.31;5070611;28;24819;-76
2022/03/16 01:57:09;;;;;;;29.20;20.98;;;;;;;6.34;100.00;96463.31;5070685;28;24422;-76
2022/03/16 01:59:36;;;;;;;27.58;21.05;;;;;;;6.37;100.00;96472.63;5070551;28;24460;-76
2022/03/16 02:02:03;;;;;;;33.50;21.25;;;;;;;6.27;100.00;96460.09;5070699;28;24526;-76
2022/03/16 02:04:30;;;;;;;29.10;22.33;;;;;;;6.27;100.00;96470.38;5070688;28;24438;-76
2022/03/16 02:06:58;;;;;;;30.83;22.33;;;;;;;6.10;100.00;96464.97;5070570;28;24468;-76
2022/03/16 02:09:25;;;;;;;29.73;22.17;;;;;;;6.13;100.00;96469.19;5070010;28;24453;-76
2022/03/16 02:11:52;;;;;;;28.55;21.88;;;;;;;6.03;100.00;96464.34;5070719;28;24414;-76
2022/03/16 02:14:18;;;;;;;33.70;23.57;;;;;;;5.99;100.00;96462.75;5070664;28;24856;-76
2022/03/16 02:16:45;;;;;;;34.45;23.15;;;;;;;6.05;100.00;96461.72;5070547;28;24480;-76
2022/03/16 02:19:12;;;;;;;35.08;23.20;;;;;;;6.13;100.00;96458.91;5070056;28;24426;-76
2022/03/16 02:21:40;;;;;;;35.20;22.90;;;;;;;6.12;100.00;96457.19;5070396;28;24421;-76
2022/03/16 02:24:09;;;;;;;32.47;24.02;;;;;;;6.16;100.00;96467.34;5070334;28;24950;-77
2022/03/16 02:26:36;;;;;;;26.25;23.05;;;;;;;6.11;100.00;96460.66;5070289;28;24983;-76
2022/03/16 02:29:03;;;;;;;33.70;24.23;;;;;;;6.17;100.00;96458.72;5070421;28;24501;-77
2022/03/16 02:31:30;;;;;;;28.90;22.73;;;;;;;6.17;100.00;96465.59;5070701;28;24426;-76
2022/03/16 02:33:56;;;;;;;28.40;24.00;;;;;;;6.20;100.00;96457.78;5070437;28;24419;-76
2022/03/16 02:36:23;;;;;;;35.90;25.87;;;;;;;6.24;100.00;96464.50;5070223;28;25001;-77
2022/03/16 02:38:49;;;;;;;28.88;25.08;;;;;;;6.11;100.00;96461.50;5070238;28;24460;-77
2022/03/16 02:41:17;;;;;;;32.25;25.02;;;;;;;6.02;100.00;96457.53;5070266;28;24418;-76
2022/03/16 02:43:43;;;;;;;37.35;25.73;;;;;;;5.98;100.00;96463.66;5070264;28;24419;-76
2022/03/16 02:46:10;;;;;;;32.33;24.67;;;;;;;5.95;100.00;96460.34;5070274;28;24480;-76
2022/03/16 02:48:36;;;;;;;30.20;25.08;;;;;;;6.05;100.00;96464.31;5069814;28;24848;-76
2022/03/16 02:51:03;;;;;;;30.08;24.00;;;;;;;6.05;100.00;96470.28;5070037;28;24784;-76
2022/03/16 02:53:29;;;;;;;30.95;24.30;;;;;;;6.15;100.00;96472.53;5070063;28;25001;-76
2022/03/16 02:55:56;;;;;;;28.73;24.10;;;;;;;6.15;100.00;96468.22;5070110;28;24484;-76
2022/03/16 02:58:24;;;;;;;27.63;24.13;;;;;;;6.00;100.00;96474.72;5069965;28;24433;-75
2022/03/16 03:00:50;;;;;;;30.70;25.33;;;;;;;5.98;100.00;96467.97;5070326;28;24414;-75
2022/03/16 03:03:17;;;;;;;33.13;25.73;;;;;;;5.95;100.00;96470.63;5069983;28;24411;-76
2022/03/16 03:05:43;;;;;;;29.30;24.37;;;;;;;5.93;100.00;96473.28;5072892;28;24430;-76
2022/03/16 03:08:10;;;;;;;32.13;24.00;;;;;;;5.96;100.00;96473.13;5073857;28;24441;-76
2022/03/16 03:10:36;;;;;;;29.63;25.67;;;;;;;6.03;100.00;96474.63;5073569;28;24487;-76
2022/03/16 03:13:03;;;;;;;29.33;25.90;;;;;;;6.00;100.00;96471.31;5073734;28;24414;-76
2022/03/16 03:15:31;;;;;;;36.57;25.63;;;;;;;5.95;100.00;96471.47;5073565;28;24494;-76
2022/03/16 03:17:57;;;;;;;27.40;24.42;;;;;;;5.97;100.00;96473.97;5073792;28;24439;-76
2022/03/16 03:20:24;;;;;;;33.75;27.30;;;;;;;5.98;100.00;96478.25;5073299;28;24426;-76
2022/03/16 03:22:50;;;;;;;28.98;25.50;;;;;;;5.98;100.00;96476.50;5073529;28;24996;-76
2022/03/16 03:25:17;;;;;;;31.27;27.05;;;;;;;5.89;100.00;96481.06;5073444;28;24418;-76
2022/03/16 03:27:44;;;;;;;29.67;25.58;;;;;;;5.93;100.00;96478.41;5073419;28;24422;-76
2022/03/16 03:30:11;;;;;;;33.55;27.30;;;;;;;5.85;100.00;96477.78;5072998;28;24488;-76
2022/03/16 03:32:39;;;;;;;34.13;28.00;;;;;;;5.91;100.00;96479.31;5073222;28;24426;-76
2022/03/16 03:35:07;;;;;;;32.17;28.13;;;;;;;5.92;100.00;96481.84;5073125;28;25037;-76
2022/03/16 03:37:33;;;;;;;32.50;26.77;;;;;;;5.89;100.00;96487.06;5073173;28;24442;-76
2022/03/16 03:40:00;;;;;;;28.67;25.73;;;;;;;5.95;100.00;96486.91;5072903;28;24410;-76
2022/03/16 03:42:26;;;;;;;35.40;26.27;;;;;;;6.00;100.00;96479.84;5073139;28;24426;-76
2022/03/16 03:44:53;;;;;;;31.10;25.70;;;;;;;6.01;100.00;96483.28;5073047;28;24422;-76
2022/03/16 03:47:19;;;;;;;34.15;23.83;;;;;;;6.04;100.00;96484.03;5072789;28;24426;-76
2022/03/16 03:49:47;;;;;;;32.40;27.92;;;;;;;6.00;100.00;96482.44;5072867;28;24787;-76
2022/03/16 03:52:13;;;;;;;33.95;26.55;;;;;;;5.96;100.00;96491.13;5073043;28;24476;-76
2022/03/16 03:54:40;;;;;;;31.73;26.55;;;;;;;5.99;100.00;96482.50;5072856;28;24418;-76
2022/03/16 03:57:07;;;;;;;33.75;26.67;;;;;;;6.01;100.00;96488.44;5072981;28;24931;-76
2022/03/16 03:59:34;;;;;;;30.53;25.70;;;;;;;6.04;100.00;96483.16;5072456;28;24430;-76
2022/03/16 04:02:00;;;;;;;35.45;27.63;;;;;;;5.93;100.00;96480.97;5072519;28;24430;-76
2022/03/16 04:04:27;;;;;;;38.85;28.33;;;;;;;5.93;100.00;96480.97;5072577;28;24981;-76
2022/03/16 04:06:55;;;;;;;32.75;26.65;;;;;;;5.96;100.00;96480.03;5072429;28;24476;-76
2022/03/16 04:09:21;;;;;;;31.85;26.67;;;;;;;6.00;100.00;96481.59;5072166;28;24453;-76
2022/03/16 04:11:48;;;;;;;33.70;26.20;;;;;;;6.01;100.00;96468.69;5072523;28;24434;-76
2022/03/16 04:14:16;;;;;;;32.28;27.33;;;;;;;6.00;100.00;96476.44;5072302;28;24429;-76
2022/03/16 04:16:42;;;;;;;38.72;29.63;;;;;;;5.94;100.00;96471.53;5072474;28;24508;-76
2022/03/16 04:19:09;;;;;;;36.10;27.00;;;;;;;5.98;100.00;96481.66;5071876;28;25010;-75
2022/03/16 04:21:35;;;;;;;30.88;25.98;;;;;;;5.95;100.00;96479.19;5072388;28;24422;-76
2022/03/16 04:24:03;;;;;;;29.97;26.67;;;;;;;5.93;100.00;96485.25;5072350;28;24418;-76
2022/03/16 04:26:30;;;;;;;35.10;27.77;;;;;;;5.98;100.00;96489.38;5072277;28;24781;-76
2022/03/16 04:28:57;;;;;;;33.00;26.27;;;;;;;6.01;100.00;96484.13;5071722;28;24419;-76
2022/03/16 04:31:23;;;;;;;32.35;26.27;;;;;;;6.01;100.00;96486.72;5072148;28;25017;-76
2022/03/16 04:33:50;;;;;;;35.50;26.50;;;;;;;6.05;100.00;96487.44;5072200;28;24423;-76
2022/03/16 04:36:16;;;;;;;33.05;25.73;;;;;;;6.05;100.00;96490.00;5072208;28;24434;-76
2022/03/16 04:38:43;;;;;;;31.48;25.33;;;;;;;6.04;100.00;96484.03;5071643;28;24488;-76
2022/03/16 04:41:10;;;;;;;32.65;25.60;;;;;;;6.07;100.00;96486.47;5072070;28;24445;-76
2022/03/16 04:43:37;;;;;;;30.08;25.00;;;;;;;6.07;100.00;96476.19;5071747;28;24434;-76
2022/03/16 04:46:04;;;;;;;29.38;26.13;;;;;;;6.02;100.00;96478.09;5072033;28;24422;-76
2022/03/16 04:48:31;;;;;;;32.60;24.70;;;;;;;6.06;100.00;96477.09;5071522;28;24947;-76
2022/03/16 04:50:57;;;;;;;28.10;25.20;;;;;;;6.07;100.00;96480.50;5071874;28;24457;-76
2022/03/16 04:53:23;;;;;;;30.00;24.35;;;;;;;6.09;100.00;96471.00;5071763;28;24424;-76
2022/03/16 04:55:50;;;;;;;32.87;26.20;;;;;;;6.11;100.00;96469.22;5071506;28;24623;-76
2022/03/16 04:58:18;;;;;;;30.60;25.55;;;;;;;6.11;100.00;96469.22;5071868;28;24489;-76
2022/03/16 05:00:44;;;;;;;27.27;24.38;;;;;;;6.08;100.00;96464.16;5071697;28;24483;-76
2022/03/16 05:03:11;;;;;;;29.00;25.38;;;;;;;6.16;100.00;96464.78;5071872;28;24423;-76
2022/03/16 05:05:37;;;;;;;28.58;23.17;;;;;;;6.16;100.00;96469.09;5071409;28;24472;-76
2022/03/16 05:08:04;;;;;;;29.63;24.58;;;;;;;6.06;100.00;96471.13;5071226;28;24427;-76
2022/03/16 05:10:30;;;;;;;26.60;23.50;;;;;;;6.06;100.00;96468.53;5071127;28;24438;-76
2022/03/16 05:12:57;;;;;;;29.13;23.80;;;;;;;6.04;100.00;96471.19;5071310;28;25066;-76
2022/03/16 05:15:25;;;;;;;29.92;26.05;;;;;;;6.05;100.00;96477.16;5071415;28;24472;-76
2022/03/16 05:17:51;;;;;;;30.65;26.42;;;;;;;6.06;100.00;96483.97;5070958;28;24982;-76
2022/03/16 05:20:18;;;;;;;40.40;29.13;;;;;;;6.07;100.00;96485.63;5070868;28;25017;-77
2022/03/16 05:22:45;;;;;;;37.97;29.35;;;;;;;6.21;100.00;96487.75;5071135;28;24843;-76
2022/03/16 05:25:13;;;;;;;44.75;30.92;;;;;;;6.26;100.00;96493.56;5071036;28;24434;-76
2022/03/16 05:27:40;;;;;;;42.83;30.15;;;;;;;6.19;100.00;96498.13;5070589;28;24967;-77
2022/03/16 05:30:08;;;;;;;51.03;31.77;;;;;;;6.19;100.00;96495.53;5070977;28;24451;-75
2022/03/16 05:32:39;;;;;;;43.00;32.10;;;;;;;6.18;100.00;96498.16;5070400;28;24505;-76
2022/03/16 05:35:06;;;;;;;39.30;32.25;;;;;;;6.15;100.00;96504.22;5088209;28;24468;-77
2022/03/16 05:37:33;;;;;;;49.72;33.42;;;;;;;6.23;100.00;96499.69;5093478;28;24981;-76
2022/03/16 05:39:59;;;;;;;40.33;33.30;;;;;;;6.47;100.00;96512.59;5091400;28;24471;-76
2022/03/16 05:42:26;;;;;;;41.90;33.13;;;;;;;6.60;100.00;96507.84;5091124;28;24433;-77
2022/03/16 05:44:54;;;;;;;40.40;32.78;;;;;;;6.51;100.00;96507.28;5091117;28;24420;-77
2022/03/16 05:47:21;;;;;;;40.10;31.02;;;;;;;6.65;100.00;96505.97;5094130;28;24823;-77
2022/03/16 05:49:50;;;;;;;43.72;31.80;;;;;;;6.82;100.00;96501.03;5102326;28;24442;-77
2022/03/16 05:52:19;;;;;;;43.72;31.90;;;;;;;6.71;100.00;96513.44;5102033;28;24457;-78
2022/03/16 05:54:46;;;;;;;44.28;31.55;;;;;;;6.79;100.00;96508.88;5099165;28;24429;-77
2022/03/16 05:57:13;;;;;;;40.08;31.60;;;;;;;6.79;100.00;96508.88;5097577;28;24414;-77
2022/03/16 05:59:40;;;;;;;43.50;32.75;;;;;;;6.84;100.00;96506.97;5089929;28;24426;-77
2022/03/16 06:02:07;;;;;;;44.30;33.78;;;;;;;6.92;100.00;96510.09;5069924;28;24426;-77
2022/03/16 06:04:33;;;;;;;47.15;32.92;;;;;;;6.83;100.00;96517.34;5071629;28;24425;-77
2022/03/16 06:07:01;;;;;;;43.33;34.58;;;;;;;6.87;100.00;96513.75;5071709;28;24445;-76
2022/03/16 06:09:27;;;;;;;46.35;35.63;;;;;;;6.77;100.00;96518.38;5074896;28;24446;-78
2022/03/16 06:11:54;;;;;;;49.75;34.03;;;;;;;6.70;100.00;96522.91;5073148;28;24423;-75
2022/03/16 06:14:20;;;;;;;53.35;33.28;;;;;;;6.76;100.00;96520.13;5072551;28;24484;-77
2022/03/16 06:16:47;;;;;;;51.10;35.00;;;;;;;6.84;100.00;96521.59;5073321;28;24415;-77
2022/03/16 06:19:14;;;;;;;49.42;33.75;;;;;;;6.86;100.00;96517.22;5071495;28;24836;-77
2022/03/16 06:21:41;;;;;;;47.30;36.05;;;;;;;6.82;100.00;96529.34;5071830;28;24476;-76
2022/03/16 06:24:08;;;;;;;40.42;34.33;;;;;;;6.76;100.00;96533.00;5072350;28;24422;-77
2022/03/16 06:26:35;;;;;;;50.17;35.43;;;;;;;6.51;100.00;96527.03;5071619;28;24659;-76
2022/03/16 06:29:01;;;;;;;36.80;31.42;;;;;;;6.31;100.00;96522.56;5072206;28;24441;-78
2022/03/16 06:31:28;;;;;;;38.92;31.83;;;;;;;6.18;100.00;96523.88;5075295;28;24443;-78
2022/03/16 06:33:54;;;;;;;31.92;27.27;;;;;;;6.16;100.00;96521.34;5075378;28;24403;-77
2022/03/16 06:36:21;;;;;;;31.52;28.00;;;;;;;6.20;100.00;96532.38;5072607;28;24422;-78
2022/03/16 06:38:47;;;;;;;37.85;26.50;;;;;;;6.19;100.00;96528.09;5076677;28;24426;-78
2022/03/16 06:41:15;;;;;;;34.65;26.75;;;;;;;6.15;100.00;96531.69;5082192;28;24749;-78
2022/03/16 06:43:41;;;;;;;28.52;25.60;;;;;;;6.18;100.00;96537.56;5080938;28;24955;-79
2022/03/16 06:46:08;;;;;;;30.13;26.60;;;;;;;6.23;100.00;96533.13;5080794;28;24419;-77
2022/03/16 06:48:34;;;;;;;32.60;26.08;;;;;;;6.17;100.00;96537.63;5079614;28;24441;-77
2022/03/16 06:51:01;;;;;;;34.08;27.83;;;;;;;6.19;100.00;96544.41;5077948;28;25185;-77
2022/03/16 06:53:28;;;;;;;32.88;27.55;;;;;;;6.16;100.00;96547.06;5081237;28;24769;-78
2022/03/16 06:55:54;;;;;;;31.85;28.55;;;;;;;6.30;100.00;96552.59;5080413;28;24453;-79
2022/03/16 06:58:22;;;;;;;30.38;27.38;;;;;;;6.24;100.00;96560.53;5083311;28;24497;-78
2022/03/16 07:00:49;;;;;;;31.73;28.30;;;;;;;6.26;100.00;96555.31;5081202;28;24418;-78
2022/03/16 07:03:15;;;;;;;38.23;29.83;;;;;;;6.28;100.00;96562.09;5080621;28;24939;-78
2022/03/16 07:05:43;;;;;;;41.03;31.47;;;;;;;6.37;100.00;96560.94;5080084;28;24823;-77
2022/03/16 07:08:11;;;;;;;34.45;30.83;;;;;;;6.50;100.00;96564.78;5079132;28;24435;-78
2022/03/16 07:10:40;;;;;;;38.40;30.90;;;;;;;6.48;100.00;96569.13;5077768;28;24450;-77
2022/03/16 07:13:07;;;;;;;37.17;30.83;;;;;;;6.70;100.00;96573.56;5074731;28;24956;-77
2022/03/16 07:15:36;;;;;;;35.95;29.65;;;;;;;6.92;100.00;96563.34;5074202;28;24513;-77
2022/03/16 07:18:03;;;;;;;39.85;32.00;;;;;;;6.69;100.00;96567.56;5075237;28;24426;-77
2022/03/16 07:20:30;;;;;;;37.67;32.00;;;;;;;6.63;100.00;96567.78;5074135;28;25025;-77
2022/03/16 07:23:05;;;;;;;36.37;32.37;;;;;;;6.77;100.00;96577.59;5073914;28;24460;-77
2022/03/16 07:25:31;;;;;;;36.95;32.78;;;;;;;6.71;100.00;96576.09;5074379;28;25009;-77
2022/03/16 07:27:58;;;;;;;35.72;31.92;;;;;;;6.60;100.00;96578.19;5073575;28;24426;-77
2022/03/16 07:30:25;;;;;;;40.78;33.10;;;;;;;6.52;100.00;96575.84;5074551;28;25022;-77
2022/03/16 07:32:52;;;;;;;38.13;33.60;;;;;;;6.47;100.00;96589.78;5074138;28;24430;-77
2022/03/16 07:35:24;;;;;;;49.55;37.83;;;;;;;6.45;100.00;96583.84;5073475;28;24411;-77
2022/03/16 07:37:50;;;;;;;51.72;38.17;;;;;;;6.46;100.00;96583.81;5073173;28;24785;-77
2022/03/16 07:40:17;;;;;;;51.83;37.97;;;;;;;6.57;100.00;96591.16;5073633;28;24411;-76
2022/03/16 07:42:46;;;;;;;53.90;37.42;;;;;;;6.57;100.00;96588.59;5073022;28;24414;-76
2022/03/16 07:45:14;;;;;;;59.88;40.45;;;;;;;6.59;100.00;96585.94;5073454;28;24425;-76
2022/03/16 07:47:41;;;;;;;50.00;37.88;;;;;;;6.46;100.00;96593.25;5073668;28;24483;-75
2022/03/16 07:50:10;;;;;;;50.63;35.80;;;;;;;6.45;100.00;96592.44;5074682;28;24446;-76
2022/03/16 07:52:37;;;;;;;47.60;38.05;;;;;;;6.53;100.00;96585.28;5077764;28;24426;-75
2022/03/16 07:55:04;;;;;;;46.28;36.65;;;;;;;6.51;100.00;96592.19;5073899;28;24418;-77
2022/03/16 07:57:30;;;;;;;44.90;34.45;;;;;;;6.60;100.00;96587.63;5073141;28;24441;-78
2022/03/16 07:59:57;;;;;;;47.42;35.95;;;;;;;6.62;100.00;96585.84;5070051;28;24443;-78
2022/03/16 08:02:23;;;;;;;46.22;37.10;;;;;;;6.66;100.00;96584.84;5078475;28;24843;-77
2022/03/16 08:04:50;;;;;;;47.85;35.15;;;;;;;6.61;100.00;96579.03;5074921;28;24430;-78
2022/03/16 08:07:18;;;;;;;48.80;36.80;;;;;;;6.65;100.00;96581.44;5076116;28;24426;-77
2022/03/16 08:09:44;;;;;;;43.90;36.03;;;;;;;6.76;100.00;96576.75;5078946;28;24433;-78
2022/03/16 08:12:11;;;;;;;47.78;36.42;;;;;;;7.01;100.00;96569.03;5079586;28;24443;-77
2022/03/16 08:14:37;;;;;;;50.80;38.58;;;;;;;6.97;100.00;96572.59;5073545;28;24450;-77
2022/03/16 08:17:04;;;;;;;42.15;35.80;;;;;;;6.98;100.00;96576.84;5074097;28;24418;-77
2022/03/16 08:19:31;;;;;;;45.15;35.83;;;;;;;6.89;100.00;96573.75;5075137;28;24425;-77
2022/03/16 08:21:57;;;;;;;43.67;35.80;;;;;;;6.85;100.00;96569.59;5074599;28;24422;-77
2022/03/16 08:24:25;;;;;;;48.53;37.08;;;;;;;6.90;100.00;96560.84;5077352;28;24415;-77
2022/03/16 08:26:52;;;;;;;41.07;35.13;;;;;;;6.85;100.00;96562.72;5076357;28;24439;-77
2022/03/16 08:29:18;;;;;;;40.60;35.37;;;;;;;6.84;100.00;96570.50;5075555;28;24476;-77
2022/03/16 08:31:45;;;;;;;47.20;34.83;;;;;;;6.88;100.00;96572.91;5077561;28;24881;-77
2022/03/16 08:34:11;;;;;;;41.00;33.73;;;;;;;7.00;100.00;96558.75;5076007;28;24514;-77
2022/03/16 08:36:38;;;;;;;45.42;35.70;;;;;;;7.11;100.00;96563.53;5078182;28;24418;-78
2022/03/16 08:39:05;;;;;;;59.97;38.00;;;;;;;7.13;100.00;96566.91;5076890;28;24433;-79
2022/03/16 08:41:33;;;;;;;45.67;36.65;;;;;;;7.11;100.00;96563.53;5082818;28;24414;-76
2022/03/16 08:44:01;;;;;;;41.83;34.97;;;;;;;7.15;100.00;96567.66;5087153;28;24415;-76
2022/03/16 08:46:29;;;;;;;46.63;37.35;;;;;;;7.18;100.00;96570.13;5091628;28;24422;-76
2022/03/16 08:48:56;;;;;;;39.78;34.00;;;;;;;7.15;100.00;96560.78;5095433;28;24410;-76
2022/03/16 08:51:23;;;;;;;40.30;35.35;;;;;;;7.22;100.00;96569.97;5079902;28;24450;-75
2022/03/16 08:53:49;;;;;;;46.58;36.67;;;;;;;7.11;100.00;96561.78;5080263;28;20748;-77
2022/03/16 08:56:16;;;;;;;41.20;35.60;;;;;;;7.09;100.00;96565.34;5079049;28;24493;-78
2022/03/16 08:58:45;;;;;;;39.40;35.20;;;;;;;7.13;100.00;96562.59;5071556;28;20794;-75
2022/03/16 09:01:11;;;;;;;45.45;35.95;;;;;;;7.20;100.00;96558.06;5072747;28;24522;-77
2022/03/16 09:03:37;;;;;;;40.40;33.67;;;;;;;7.30;100.00;96554.22;5069805;28;24431;-76
2022/03/16 09:06:04;;;;;;;34.77;31.00;;;;;;;7.35;100.00;96554.91;5063175;28;24430;-77
2022/03/16 09:08:31;;;;;;;42.40;33.97;;;;;;;7.36;100.00;96550.59;5059711;28;20765;-77
2022/03/16 09:10:57;;;;;;;44.30;36.35;;;;;;;7.36;100.00;96554.00;5073156;28;20871;-78
2022/03/16 09:13:24;;;;;;;40.97;34.38;;;;;;;7.46;100.00;96550.19;5074815;28;24879;-77
2022/03/16 09:15:52;;;;;;;36.47;32.53;;;;;;;7.57;100.00;96543.78;5075434;28;24425;-76
2022/03/16 09:18:19;;;;;;;37.92;33.05;;;;;;;7.60;100.00;96541.94;5075210;28;21319;-76
2022/03/16 09:20:46;;;;;;;41.00;32.28;;;;;;;7.64;100.00;96545.19;5072139;28;20801;-77
2022/03/16 09:23:12;;;;;;;37.97;32.72;;;;;;;7.72;100.00;96554.34;5074006;28;20764;-75
2022/03/16 09:25:41;;;;;;;39.63;34.58;;;;;;;7.82;100.00;96559.13;5071273;28;24418;-75
2022/03/16 09:28:08;;;;;;;45.72;35.15;;;;;;;7.74;100.00;96556.84;5071303;28;21245;-75
2022/03/16 09:30:34;;;;;;;38.67;32.65;;;;;;;7.82;100.00;96557.38;5071342;28;24459;-75
2022/03/16 09:33:02;;;;;;;39.17;33.38;;;;;;;7.81;100.00;96554.88;5071310;28;21329;-75
2022/03/16 09:35:30;;;;;;;49.35;37.10;;;;;;;7.75;100.00;96561.94;5071287;28;24431;-75
2022/03/16 09:37:58;;;;;;;40.58;35.50;;;;;;;7.73;100.00;96556.00;5071822;28;24431;-75
2022/03/16 09:40:25;;;;;;;42.67;36.60;;;;;;;7.75;100.00;96549.06;5071609;28;20820;-75
2022/03/16 09:42:52;;;;;;;50.63;35.42;;;;;;;7.69;100.00;96549.28;5070787;28;24438;-76
2022/03/16 09:45:21;;;;;;;46.67;35.42;;;;;;;7.69;100.00;96544.13;5071442;28;24768;-75
2022/03/16 09:47:49;;;;;;;41.67;33.80;;;;;;;7.98;100.00;96537.00;5071982;28;20897;-75
2022/03/16 09:50:19;;;;;;;34.85;28.98;;;;;;;8.76;100.00;96546.66;5071365;28;20783;-75
2022/03/16 09:52:47;;;;;;;38.88;33.67;;;;;;;8.99;100.00;96548.25;5070516;28;20751;-75
2022/03/16 09:55:13;;;;;;;44.25;38.08;;;;;;;9.02;100.00;96547.28;5071418;28;21196;-75
2022/03/16 09:57:41;;;;;;;45.77;37.67;;;;;;;9.03;100.00;96551.53;5087793;28;25109;-75
2022/03/16 10:00:12;;;;;;;48.20;38.42;;;;;;;9.04;100.00;96545.44;5091432;28;24500;-75
2022/03/16 10:02:38;;;;;;;52.92;39.65;;;;;;;9.01;100.00;96545.59;5091928;28;24435;-75
2022/03/16 10:05:08;;;;;;;49.58;39.47;;;;;;;8.91;100.00;96543.41;5091738;28;24429;-75
2022/03/16 10:07:37;;;;;;;46.08;41.10;;;;;;;8.71;100.00;96533.97;5055270;28;24444;-74
2022/03/16 10:15:43;;;;;;;50.90;42.10;;;;;;;8.78;100.00;96531.09;5050547;28;24486;-75
2022/03/16 10:18:09;;;;;;;57.00;42.00;;;;;;;8.89;100.00;96534.03;5051066;28;24435;-75
2022/03/16 10:20:39;;;;;;;50.05;40.40;;;;;;;8.70;100.00;96529.69;5050024;28;24481;-75
2022/03/16 10:23:10;;;;;;;46.80;37.88;;;;;;;8.93;100.00;96520.91;5079501;28;25029;-75
2022/03/16 10:25:38;;;;;;;47.00;37.42;;;;;;;9.03;100.00;96529.09;5091174;28;24503;-75
2022/03/16 10:28:11;;;;;;;42.00;34.67;;;;;;;8.98;100.00;96525.06;5050258;28;24411;-75
2022/03/16 10:30:55;;;;;;;39.47;34.65;;;;;;;8.87;100.00;96525.53;5050661;28;24979;-75
2022/03/16 10:33:22;;;;;;;46.63;36.88;;;;;;;8.86;100.00;96529.00;5050880;28;24531;-75
2022/03/16 10:35:57;;;;;;;48.50;39.33;;;;;;;8.73;100.00;96524.38;5068877;28;24422;-75
2022/03/16 10:38:26;;;;;;;46.50;39.15;;;;;;;8.67;100.00;96522.06;5085170;28;24438;-75
2022/03/16 10:40:54;;;;;;;48.85;40.20;;;;;;;8.50;100.00;96527.13;5088735;28;24418;-74
2022/03/16 10:46:38;;;;;;;44.33;39.63;;;;;;;8.69;100.00;96520.25;5008718;28;25060;-75
2022/03/16 10:49:07;;;;;;;47.85;40.92;;;;;;;9.03;100.00;96520.53;5008702;28;24440;-75
2022/03/16 10:51:34;;;;;;;49.72;38.90;;;;;;;9.08;100.00;96515.97;5024963;28;25017;-75
2022/03/16 10:54:03;;;;;;;51.17;39.03;;;;;;;9.06;100.00;96520.41;5071315;28;24434;-75
2022/03/16 10:56:31;;;;;;;46.20;37.67;;;;;;;8.95;100.00;96520.88;5060016;28;24538;-74
2022/03/16 10:58:58;;;;;;;45.00;38.08;;;;;;;8.85;100.00;96532.50;5049529;28;24419;-74
2022/03/16 11:01:27;;;;;;;50.65;39.03;;;;;;;8.71;100.00;96526.22;5050007;28;24415;-75
2022/03/16 11:03:58;;;;;;;52.20;42.20;;;;;;;8.69;100.00;96529.75;5049739;28;24423;-75
2022/03/16 11:06:25;;;;;;;44.28;38.90;;;;;;;8.79;100.00;96531.03;5069359;28;24434;-76
2022/03/16 11:08:53;;;;;;;42.15;36.47;;;;;;;8.79;100.00;96536.22;5069541;28;24803;-74
2022/03/16 11:14:08;;;;;;;43.57;35.87;;;;;;;8.72;100.00;96529.63;5070495;28;24426;-74
2022/03/16 11:16:35;;;;;;;41.00;34.17;;;;;;;8.68;100.00;96523.75;5070632;28;24476;-76
2022/03/16 11:19:04;;;;;;;39.05;32.03;;;;;;;8.66;100.00;96527.31;5070027;28;24438;-75
2022/03/16 11:21:35;;;;;;;38.85;32.17;;;;;;;8.73;100.00;96519.22;5070459;28;24457;-75
2022/03/16 11:24:16;;;;;;;43.33;33.10;;;;;;;8.74;100.00;96520.06;5070828;28;24454;-75
2022/03/16 11:27:10;;;;;;;35.28;31.45;;;;;;;8.77;100.00;96513.94;5074170;28;24438;-74
2022/03/16 11:29:50;;;;;;;38.60;34.45;;;;;;;8.91;100.00;96519.34;5071109;28;24451;-74